VOCP

Details ICAO VOCP (CDP)
Name CUDDAPAH
Region India
Timezone Asia/Kolkata (UTC+5.5)
Plans Departing 1
Arriving 2
Stats Elevation 430 ft / 131 m (AMSL)
Location 14.509961° 78.772832°
Runways 1
Magnetic Variation 0.966° W
Sunrise 2018-05-26 00:16:46 UTC / 2018-05-26 05:46:46 Local
Sunset 2018-05-26 13:09:58 UTC / 2018-05-26 18:39:58 Local
Advertisement - Login to hide

Runways

ID Width Length Bearing (true) Bearing (mag) Surface Threshold Offset Overrun Length
11 49 ft / 15 m 3,516 ft / 1,072 m 108.52° 109.49° Asphalt 0 ft / 0 m 0 ft / 0 m
29 49 ft / 15 m 3,516 ft / 1,072 m 288.53° 289.50° Asphalt 0 ft / 0 m 0 ft / 0 m

Map

Weather


0- 5 10 15 20 25 30 35+ Temperature / ° C

Clouds and Precipitation
Forecast for 2018-05-26 06:00 UTC. Updated 5 hours ago

Ground ~20,000 ft ~40,000 ft Winds

METAR

VOCP 261000Z 09006KT 6000 FEW020 FEW025 38/23 Q1000

TAF

Not found

Frequencies

Tower 122.30 MHz TWR
Warning: Do not use this data for real-world aviation or navigation. No guarantee of current accuracy is given.